sensor_id;sensor_type;location;lat;lon;timestamp;pressure;altitude;pressure_sealevel;temperature;humidity
29733;BME280;16643;43.158;25.302;2023-02-28T00:00:47;98736.88;;;7.86;100.00
29733;BME280;16643;43.158;25.302;2023-02-28T00:03:12;98741.97;;;7.92;100.00
29733;BME280;16643;43.158;25.302;2023-02-28T00:05:38;98742.19;;;7.70;100.00
29733;BME280;16643;43.158;25.302;2023-02-28T00:08:03;98744.78;;;7.68;100.00
29733;BME280;16643;43.158;25.302;2023-02-28T00:10:29;98764.56;;;7.78;100.00
29733;BME280;16643;43.158;25.302;2023-02-28T00:12:58;98757.75;;;7.67;100.00
29733;BME280;16643;43.158;25.302;2023-02-28T00:15:24;98763.03;;;7.53;100.00
29733;BME280;16643;43.158;25.302;2023-02-28T00:17:50;98757.16;;;7.33;100.00
29733;BME280;16643;43.158;25.302;2023-02-28T00:20:15;98757.22;;;7.22;100.00
29733;BME280;16643;43.158;25.302;2023-02-28T00:22:42;98758.88;;;7.27;100.00
29733;BME280;16643;43.158;25.302;2023-02-28T00:25:08;98771.81;;;7.24;100.00
29733;BME280;16643;43.158;25.302;2023-02-28T00:27:35;98761.41;;;7.40;100.00
29733;BME280;16643;43.158;25.302;2023-02-28T00:30:01;98763.88;;;7.55;100.00
29733;BME280;16643;43.158;25.302;2023-02-28T00:32:26;98777.59;;;7.63;100.00
29733;BME280;16643;43.158;25.302;2023-02-28T00:34:52;98767.19;;;7.71;100.00
29733;BME280;16643;43.158;25.302;2023-02-28T00:37:17;98777.50;;;7.78;100.00
29733;BME280;16643;43.158;25.302;2023-02-28T00:39:42;98767.09;;;7.80;100.00
29733;BME280;16643;43.158;25.302;2023-02-28T00:42:08;98774.97;;;7.69;100.00
29733;BME280;16643;43.158;25.302;2023-02-28T00:44:33;98781.06;;;7.65;100.00
29733;BME280;16643;43.158;25.302;2023-02-28T00:46:59;98778.47;;;7.60;100.00
29733;BME280;16643;43.158;25.302;2023-02-28T00:49:25;98783.72;;;7.53;100.00
29733;BME280;16643;43.158;25.302;2023-02-28T00:51:51;98779.41;;;7.52;100.00
29733;BME280;16643;43.158;25.302;2023-02-28T00:54:16;98778.47;;;7.60;100.00
29733;BME280;16643;43.158;25.302;2023-02-28T00:56:42;98763.91;;;7.50;100.00
29733;BME280;16643;43.158;25.302;2023-02-28T00:59:07;98765.56;;;7.57;100.00
29733;BME280;16643;43.158;25.302;2023-02-28T01:01:33;98774.16;;;7.65;100.00
29733;BME280;16643;43.158;25.302;2023-02-28T01:03:58;98768.09;;;7.67;100.00
29733;BME280;16643;43.158;25.302;2023-02-28T01:06:24;98760.50;;;7.44;100.00
29733;BME280;16643;43.158;25.302;2023-02-28T01:08:49;98758.72;;;7.50;100.00
29733;BME280;16643;43.158;25.302;2023-02-28T01:11:15;98762.09;;;7.64;100.00
29733;BME280;16643;43.158;25.302;2023-02-28T01:13:42;98758.63;;;7.64;100.00
29733;BME280;16643;43.158;25.302;2023-02-28T01:16:07;98755.19;;;7.62;100.00
29733;BME280;16643;43.158;25.302;2023-02-28T01:18:33;98746.56;;;7.63;100.00
29733;BME280;16643;43.158;25.302;2023-02-28T01:21:02;98743.97;;;7.63;100.00
29733;BME280;16643;43.158;25.302;2023-02-28T01:23:28;98747.53;;;7.50;100.00
29733;BME280;16643;43.158;25.302;2023-02-28T01:25:53;98757.94;;;7.41;100.00
29733;BME280;16643;43.158;25.302;2023-02-28T01:28:19;98750.91;;;7.59;100.00
29733;BME280;16643;43.158;25.302;2023-02-28T01:30:51;98745.69;;;7.62;100.00
29733;BME280;16643;43.158;25.302;2023-02-28T01:33:16;98744.75;;;7.76;100.00
29733;BME280;16643;43.158;25.302;2023-02-28T01:35:42;98748.94;;;7.89;100.00
29733;BME280;16643;43.158;25.302;2023-02-28T01:38:07;98741.97;;;7.92;100.00
29733;BME280;16643;43.158;25.302;2023-02-28T01:40:32;98742.81;;;7.99;100.00
29733;BME280;16643;43.158;25.302;2023-02-28T01:42:58;98745.41;;;7.96;100.00
29733;BME280;16643;43.158;25.302;2023-02-28T01:45:27;98754.84;;;8.01;100.00
29733;BME280;16643;43.158;25.302;2023-02-28T01:48:03;98752.28;;;7.98;100.00
29733;BME280;16643;43.158;25.302;2023-02-28T01:50:31;98760.16;;;7.88;100.00
29733;BME280;16643;43.158;25.302;2023-02-28T01:53:00;98760.38;;;7.60;100.00
29733;BME280;16643;43.158;25.302;2023-02-28T01:55:26;98769.09;;;7.49;100.00
29733;BME280;16643;43.158;25.302;2023-02-28T01:57:55;98764.75;;;7.51;100.00
29733;BME280;16643;43.158;25.302;2023-02-28T02:00:22;98779.31;;;7.64;100.00
29733;BME280;16643;43.158;25.302;2023-02-28T02:02:49;98778.38;;;7.74;100.00
29733;BME280;16643;43.158;25.302;2023-02-28T02:05:17;98780.97;;;7.77;100.00
29733;BME280;16643;43.158;25.302;2023-02-28T02:07:45;98785.28;;;7.77;100.00
29733;BME280;16643;43.158;25.302;2023-02-28T02:10:16;98776.91;;;7.43;100.00
29733;BME280;16643;43.158;25.302;2023-02-28T02:12:51;98782.28;;;7.11;100.00
29733;BME280;16643;43.158;25.302;2023-02-28T02:17:56;98806.34;;;7.19;100.00
29733;BME280;16643;43.158;25.302;2023-02-28T02:20:27;98807.22;;;7.12;100.00
29733;BME280;16643;43.158;25.302;2023-02-28T02:25:25;98797.75;;;7.14;100.00
29733;BME280;16643;43.158;25.302;2023-02-28T02:28:03;98791.78;;;7.01;100.00
29733;BME280;16643;43.158;25.302;2023-02-28T02:43:29;98809.00;;;7.02;100.00
29733;BME280;16643;43.158;25.302;2023-02-28T02:45:59;98828.75;;;7.21;100.00
29733;BME280;16643;43.158;25.302;2023-02-28T02:48:29;98829.50;;;7.36;100.00
29733;BME280;16643;43.158;25.302;2023-02-28T02:50:57;98829.50;;;7.34;100.00
29733;BME280;16643;43.158;25.302;2023-02-28T02:53:34;98829.47;;;7.43;100.00
29733;BME280;16643;43.158;25.302;2023-02-28T02:56:02;98830.28;;;7.48;100.00
29733;BME280;16643;43.158;25.302;2023-02-28T02:58:30;98826.91;;;7.39;100.00
29733;BME280;16643;43.158;25.302;2023-02-28T03:00:57;98827.88;;;7.21;100.00
29733;BME280;16643;43.158;25.302;2023-02-28T03:03:24;98825.28;;;7.21;100.00
29733;BME280;16643;43.158;25.302;2023-02-28T03:05:59;98827.81;;;7.33;100.00
29733;BME280;16643;43.158;25.302;2023-02-28T03:08:26;98834.69;;;7.34;100.00
29733;BME280;16643;43.158;25.302;2023-02-28T03:10:55;98829.50;;;7.37;100.00
29733;BME280;16643;43.158;25.302;2023-02-28T03:18:44;98812.38;;;7.19;100.00
29733;BME280;16643;43.158;25.302;2023-02-28T03:21:15;98804.69;;;7.06;100.00
29733;BME280;16643;43.158;25.302;2023-02-28T03:23:48;98803.00;;;6.99;100.00
29733;BME280;16643;43.158;25.302;2023-02-28T03:26:24;98806.41;;;7.10;100.00
29733;BME280;16643;43.158;25.302;2023-02-28T03:31:54;98792.72;;;6.83;100.00
29733;BME280;16643;43.158;25.302;2023-02-28T03:34:30;98775.56;;;6.69;100.00
29733;BME280;16643;43.158;25.302;2023-02-28T03:36:59;98772.13;;;6.67;100.00
29733;BME280;16643;43.158;25.302;2023-02-28T03:39:30;98763.50;;;6.68;100.00
29733;BME280;16643;43.158;25.302;2023-02-28T03:42:00;98758.38;;;6.59;100.00
29733;BME280;16643;43.158;25.302;2023-02-28T03:47:29;98751.53;;;6.44;100.00
29733;BME280;16643;43.158;25.302;2023-02-28T03:49:57;98760.19;;;6.35;100.00
29733;BME280;16643;43.158;25.302;2023-02-28T03:52:27;98770.53;;;6.28;100.00
29733;BME280;16643;43.158;25.302;2023-02-28T03:54:57;98772.25;;;6.24;100.00
29733;BME280;16643;43.158;25.302;2023-02-28T03:59:58;98780.84;;;6.40;100.00
29733;BME280;16643;43.158;25.302;2023-02-28T04:02:24;98802.34;;;6.40;100.00
29733;BME280;16643;43.158;25.302;2023-02-28T04:04:50;98806.63;;;6.49;100.00
29733;BME280;16643;43.158;25.302;2023-02-28T04:07:16;98801.41;;;6.66;100.00
29733;BME280;16643;43.158;25.302;2023-02-28T04:09:42;98790.25;;;6.51;100.00
29733;BME280;16643;43.158;25.302;2023-02-28T04:12:07;98804.88;;;6.59;100.00
29733;BME280;16643;43.158;25.302;2023-02-28T04:14:33;98804.00;;;6.58;100.00
29733;BME280;16643;43.158;25.302;2023-02-28T04:16:58;98820.38;;;6.48;100.00
29733;BME280;16643;43.158;25.302;2023-02-28T04:19:24;98823.00;;;6.39;100.00
29733;BME280;16643;43.158;25.302;2023-02-28T04:21:50;98830.75;;;6.27;100.00
29733;BME280;16643;43.158;25.302;2023-02-28T04:24:17;98840.22;;;6.37;100.00
29733;BME280;16643;43.158;25.302;2023-02-28T04:26:43;98841.06;;;6.37;100.00
29733;BME280;16643;43.158;25.302;2023-02-28T04:29:09;98839.34;;;6.21;100.00
29733;BME280;16643;43.158;25.302;2023-02-28T04:31:35;98837.66;;;6.20;100.00
29733;BME280;16643;43.158;25.302;2023-02-28T04:34:01;98839.34;;;6.24;100.00
29733;BME280;16643;43.158;25.302;2023-02-28T04:36:27;98835.91;;;6.24;100.00
29733;BME280;16643;43.158;25.302;2023-02-28T04:38:53;98835.91;;;6.25;100.00
29733;BME280;16643;43.158;25.302;2023-02-28T04:41:18;98834.22;;;6.18;100.00
29733;BME280;16643;43.158;25.302;2023-02-28T04:43:44;98840.22;;;6.23;100.00
29733;BME280;16643;43.158;25.302;2023-02-28T04:46:09;98830.75;;;6.24;100.00
29733;BME280;16643;43.158;25.302;2023-02-28T04:48:35;98833.34;;;6.19;100.00
29733;BME280;16643;43.158;25.302;2023-02-28T04:51:02;98830.78;;;6.07;100.00
29733;BME280;16643;43.158;25.302;2023-02-28T04:53:28;98840.25;;;6.08;100.00
29733;BME280;16643;43.158;25.302;2023-02-28T04:55:54;98840.25;;;6.05;100.00
29733;BME280;16643;43.158;25.302;2023-02-28T04:58:20;98843.66;;;6.14;100.00
29733;BME280;16643;43.158;25.302;2023-02-28T05:00:48;98832.50;;;6.15;100.00
29733;BME280;16643;43.158;25.302;2023-02-28T05:03:13;98832.50;;;6.14;100.00
29733;BME280;16643;43.158;25.302;2023-02-28T05:05:39;98829.03;;;6.13;100.00
29733;BME280;16643;43.158;25.302;2023-02-28T05:08:04;98847.13;;;6.15;100.00
29733;BME280;16643;43.158;25.302;2023-02-28T05:10:30;98853.13;;;6.11;100.00
29733;BME280;16643;43.158;25.302;2023-02-28T05:12:55;98841.09;;;6.08;100.00
29733;BME280;16643;43.158;25.302;2023-02-28T05:15:21;98855.72;;;6.05;100.00
29733;BME280;16643;43.158;25.302;2023-02-28T05:17:47;98864.31;;;6.10;100.00
29733;BME280;16643;43.158;25.302;2023-02-28T05:20:12;98847.13;;;6.18;100.00
29733;BME280;16643;43.158;25.302;2023-02-28T05:22:39;98861.72;;;6.24;100.00
29733;BME280;16643;43.158;25.302;2023-02-28T05:25:04;98850.53;;;6.26;100.00
29733;BME280;16643;43.158;25.302;2023-02-28T05:27:30;98857.44;;;6.18;100.00
29733;BME280;16643;43.158;25.302;2023-02-28T05:29:56;98860.88;;;6.28;100.00
29733;BME280;16643;43.158;25.302;2023-02-28T05:32:21;98869.47;;;6.24;100.00
29733;BME280;16643;43.158;25.302;2023-02-28T05:34:47;98872.94;;;6.16;100.00
29733;BME280;16643;43.158;25.302;2023-02-28T05:37:13;98866.03;;;6.12;100.00
29733;BME280;16643;43.158;25.302;2023-02-28T05:39:38;98866.91;;;6.02;100.00
29733;BME280;16643;43.158;25.302;2023-02-28T05:42:04;98867.75;;;5.94;100.00
29733;BME280;16643;43.158;25.302;2023-02-28T05:44:30;98870.34;;;5.97;100.00
29733;BME280;16643;43.158;25.302;2023-02-28T05:46:55;98875.50;;;5.92;100.00
29733;BME280;16643;43.158;25.302;2023-02-28T05:49:21;98875.47;;;5.86;100.00
29733;BME280;16643;43.158;25.302;2023-02-28T05:51:46;98887.47;;;5.78;100.00
29733;BME280;16643;43.158;25.302;2023-02-28T05:54:12;98884.00;;;5.59;100.00
29733;BME280;16643;43.158;25.302;2023-02-28T05:56:38;98882.25;;;5.47;100.00
29733;BME280;16643;43.158;25.302;2023-02-28T05:59:05;98880.56;;;5.56;100.00
29733;BME280;16643;43.158;25.302;2023-02-28T06:01:32;98887.47;;;5.63;100.00
29733;BME280;16643;43.158;25.302;2023-02-28T06:04:01;98886.63;;;5.64;100.00
29733;BME280;16643;43.158;25.302;2023-02-28T06:06:27;98878.88;;;5.62;100.00
29733;BME280;16643;43.158;25.302;2023-02-28T06:08:52;98884.00;;;5.52;100.00
29733;BME280;16643;43.158;25.302;2023-02-28T06:11:18;98888.31;;;5.59;100.00
29733;BME280;16643;43.158;25.302;2023-02-28T06:13:45;98883.97;;;5.55;100.00
29733;BME280;16643;43.158;25.302;2023-02-28T06:16:10;98891.75;;;5.52;100.00
29733;BME280;16643;43.158;25.302;2023-02-28T06:18:36;98896.03;;;5.56;100.00
29733;BME280;16643;43.158;25.302;2023-02-28T06:21:02;98896.88;;;5.50;100.00
29733;BME280;16643;43.158;25.302;2023-02-28T06:23:27;98892.59;;;5.51;100.00
29733;BME280;16643;43.158;25.302;2023-02-28T06:25:52;98893.44;;;5.51;100.00
29733;BME280;16643;43.158;25.302;2023-02-28T06:28:18;98892.59;;;5.49;100.00
29733;BME280;16643;43.158;25.302;2023-02-28T06:30:44;98886.59;;;5.52;100.00
29733;BME280;16643;43.158;25.302;2023-02-28T06:33:10;98900.28;;;5.43;100.00
29733;BME280;16643;43.158;25.302;2023-02-28T06:35:35;98900.31;;;5.41;100.00
29733;BME280;16643;43.158;25.302;2023-02-28T06:38:01;98897.72;;;5.38;100.00
29733;BME280;16643;43.158;25.302;2023-02-28T06:40:26;98895.97;;;5.30;100.00
29733;BME280;16643;43.158;25.302;2023-02-28T06:42:52;98890.78;;;5.25;100.00
29733;BME280;16643;43.158;25.302;2023-02-28T06:45:17;98898.50;;;5.25;100.00
29733;BME280;16643;43.158;25.302;2023-02-28T06:47:43;98893.34;;;5.25;100.00
29733;BME280;16643;43.158;25.302;2023-02-28T06:50:10;98898.53;;;5.31;100.00
29733;BME280;16643;43.158;25.302;2023-02-28T06:52:36;98899.41;;;5.30;100.00
29733;BME280;16643;43.158;25.302;2023-02-28T06:55:06;98897.69;;;5.29;100.00
29733;BME280;16643;43.158;25.302;2023-02-28T06:57:32;98894.22;;;5.26;100.00
29733;BME280;16643;43.158;25.302;2023-02-28T06:59:58;98902.81;;;5.25;100.00
29733;BME280;16643;43.158;25.302;2023-02-28T07:02:24;98907.09;;;5.18;100.00
29733;BME280;16643;43.158;25.302;2023-02-28T07:04:50;98907.06;;;5.21;100.00
29733;BME280;16643;43.158;25.302;2023-02-28T07:07:15;98913.09;;;5.17;100.00
29733;BME280;16643;43.158;25.302;2023-02-28T07:09:40;98909.69;;;5.27;100.00
29733;BME280;16643;43.158;25.302;2023-02-28T07:12:06;98924.28;;;5.24;100.00
29733;BME280;16643;43.158;25.302;2023-02-28T07:14:31;98913.13;;;5.25;100.00
29733;BME280;16643;43.158;25.302;2023-02-28T07:16:57;98930.28;;;5.23;100.00
29733;BME280;16643;43.158;25.302;2023-02-28T07:19:22;98919.13;;;5.31;100.00
29733;BME280;16643;43.158;25.302;2023-02-28T07:21:48;98924.34;;;5.40;100.00
29733;BME280;16643;43.158;25.302;2023-02-28T07:24:13;98917.47;;;5.41;100.00
29733;BME280;16643;43.158;25.302;2023-02-28T07:26:40;98927.78;;;5.44;100.00
29733;BME280;16643;43.158;25.302;2023-02-28T07:29:06;98927.72;;;5.32;100.00
29733;BME280;16643;43.158;25.302;2023-02-28T07:31:31;98928.56;;;5.22;100.00
29733;BME280;16643;43.158;25.302;2023-02-28T07:33:57;98938.06;;;5.33;100.00
29733;BME280;16643;43.158;25.302;2023-02-28T07:36:22;98927.84;;;5.58;100.00
29733;BME280;16643;43.158;25.302;2023-02-28T07:38:48;98924.38;;;5.54;100.00
29733;BME280;16643;43.158;25.302;2023-02-28T07:41:18;98931.25;;;5.54;100.00
29733;BME280;16643;43.158;25.302;2023-02-28T07:43:44;98928.75;;;5.72;100.00
29733;BME280;16643;43.158;25.302;2023-02-28T07:46:10;98927.84;;;5.67;100.00
29733;BME280;16643;43.158;25.302;2023-02-28T07:48:36;98929.63;;;5.75;100.00
29733;BME280;16643;43.158;25.302;2023-02-28T07:51:02;98939.06;;;5.78;100.00
29733;BME280;16643;43.158;25.302;2023-02-28T07:53:28;98934.78;;;5.81;100.00
29733;BME280;16643;43.158;25.302;2023-02-28T07:55:57;98934.78;;;5.88;100.00
29733;BME280;16643;43.158;25.302;2023-02-28T07:58:23;98935.63;;;5.82;100.00
29733;BME280;16643;43.158;25.302;2023-02-28T08:00:49;98940.84;;;5.90;100.00
29733;BME280;16643;43.158;25.302;2023-02-28T08:03:14;98949.44;;;5.99;100.00
29733;BME280;16643;43.158;25.302;2023-02-28T08:05:40;98956.34;;;6.05;100.00
29733;BME280;16643;43.158;25.302;2023-02-28T08:08:06;98954.63;;;6.07;100.00
29733;BME280;16643;43.158;25.302;2023-02-28T08:10:31;98958.06;;;6.03;100.00
29733;BME280;16643;43.158;25.302;2023-02-28T08:12:57;98942.56;;;5.89;100.00
29733;BME280;16643;43.158;25.302;2023-02-28T08:15:22;98954.53;;;5.81;100.00
29733;BME280;16643;43.158;25.302;2023-02-28T08:17:48;98950.22;;;5.77;100.00
29733;BME280;16643;43.158;25.302;2023-02-28T08:20:13;98939.94;;;5.75;100.00
29733;BME280;16643;43.158;25.302;2023-02-28T08:22:39;98936.50;;;5.84;100.00
29733;BME280;16643;43.158;25.302;2023-02-28T08:25:04;98939.09;;;5.84;100.00
29733;BME280;16643;43.158;25.302;2023-02-28T08:27:32;98950.31;;;6.00;100.00
29733;BME280;16643;43.158;25.302;2023-02-28T08:29:57;98957.19;;;6.02;100.00
29733;BME280;16643;43.158;25.302;2023-02-28T08:32:23;98957.22;;;6.04;100.00
29733;BME280;16643;43.158;25.302;2023-02-28T08:34:48;98949.47;;;6.02;100.00
29733;BME280;16643;43.158;25.302;2023-02-28T08:37:14;98960.66;;;6.06;100.00
29733;BME280;16643;43.158;25.302;2023-02-28T08:39:39;98959.81;;;6.08;100.00
29733;BME280;16643;43.158;25.302;2023-02-28T08:42:05;98958.91;;;5.94;100.00
29733;BME280;16643;43.158;25.302;2023-02-28T08:44:30;98957.16;;;5.89;100.00
29733;BME280;16643;43.158;25.302;2023-02-28T08:46:55;98958.00;;;5.88;100.00
29733;BME280;16643;43.158;25.302;2023-02-28T08:49:21;98955.47;;;5.92;100.00
29733;BME280;16643;43.158;25.302;2023-02-28T08:51:46;98957.22;;;5.96;100.00
29733;BME280;16643;43.158;25.302;2023-02-28T08:54:12;98955.50;;;5.97;100.00
29733;BME280;16643;43.158;25.302;2023-02-28T08:56:38;98957.19;;;5.90;100.00
29733;BME280;16643;43.158;25.302;2023-02-28T08:59:03;98958.91;;;5.94;100.00
29733;BME280;16643;43.158;25.302;2023-02-28T09:01:29;98960.66;;;6.06;100.00
29733;BME280;16643;43.158;25.302;2023-02-28T09:03:55;98960.63;;;5.95;100.00
29733;BME280;16643;43.158;25.302;2023-02-28T09:06:22;98947.75;;;5.95;100.00
29733;BME280;16643;43.158;25.302;2023-02-28T09:08:48;98952.03;;;5.93;100.00
29733;BME280;16643;43.158;25.302;2023-02-28T09:11:14;98950.31;;;5.95;100.00
29733;BME280;16643;43.158;25.302;2023-02-28T09:13:40;98957.13;;;5.87;100.00
29733;BME280;16643;43.158;25.302;2023-02-28T09:16:06;98952.03;;;5.93;100.00
29733;BME280;16643;43.158;25.302;2023-02-28T09:18:36;98952.03;;;5.95;100.00
29733;BME280;16643;43.158;25.302;2023-02-28T09:21:05;98946.88;;;5.92;100.00
29733;BME280;16643;43.158;25.302;2023-02-28T09:23:31;98957.19;;;5.93;100.00
29733;BME280;16643;43.158;25.302;2023-02-28T09:25:57;98967.56;;;6.08;100.00
29733;BME280;16643;43.158;25.302;2023-02-28T09:28:22;98966.66;;;6.11;100.00
29733;BME280;16643;43.158;25.302;2023-02-28T09:30:49;98964.13;;;6.26;100.00
29733;BME280;16643;43.158;25.302;2023-02-28T09:33:16;98958.94;;;6.32;100.00
29733;BME280;16643;43.158;25.302;2023-02-28T09:35:41;98964.97;;;6.37;100.00
29733;BME280;16643;43.158;25.302;2023-02-28T09:38:08;98969.28;;;6.35;100.00
29733;BME280;16643;43.158;25.302;2023-02-28T09:40:53;98971.00;;;6.44;100.00
29733;BME280;16643;43.158;25.302;2023-02-28T09:43:22;98973.56;;;6.33;100.00
29733;BME280;16643;43.158;25.302;2023-02-28T09:45:52;98972.72;;;6.22;100.00
29733;BME280;16643;43.158;25.302;2023-02-28T09:48:25;98983.03;;;6.17;100.00
29733;BME280;16643;43.158;25.302;2023-02-28T09:50:59;98983.91;;;6.19;100.00
29733;BME280;16643;43.158;25.302;2023-02-28T09:53:26;98981.31;;;6.19;100.00
29733;BME280;16643;43.158;25.302;2023-02-28T09:56:13;98989.06;;;6.26;100.00
29733;BME280;16643;43.158;25.302;2023-02-28T09:58:47;98974.41;;;6.03;100.00
29733;BME280;16643;43.158;25.302;2023-02-28T10:06:36;98997.66;;;6.15;100.00
29733;BME280;16643;43.158;25.302;2023-02-28T10:09:10;98966.69;;;6.12;100.00
29733;BME280;16643;43.158;25.302;2023-02-28T10:11:38;98967.53;;;5.95;100.00
29733;BME280;16643;43.158;25.302;2023-02-28T10:14:12;98955.47;;;6.10;100.00
29733;BME280;16643;43.158;25.302;2023-02-28T10:16:59;98970.97;;;6.12;100.00
29733;BME280;16643;43.158;25.302;2023-02-28T10:19:39;98965.84;;;6.18;100.00
29733;BME280;16643;43.158;25.302;2023-02-28T10:22:11;98959.81;;;6.16;100.00
29733;BME280;16643;43.158;25.302;2023-02-28T10:24:43;98953.78;;;6.09;100.00
29733;BME280;16643;43.158;25.302;2023-02-28T10:27:16;98953.78;;;6.15;100.00
29733;BME280;16643;43.158;25.302;2023-02-28T10:29:43;98951.19;;;6.11;100.00
29733;BME280;16643;43.158;25.302;2023-02-28T10:32:09;98949.47;;;6.13;100.00
29733;BME280;16643;43.158;25.302;2023-02-28T10:34:35;98952.06;;;6.16;100.00
29733;BME280;16643;43.158;25.302;2023-02-28T10:37:01;98942.59;;;6.12;100.00
29733;BME280;16643;43.158;25.302;2023-02-28T10:39:45;98939.13;;;6.02;100.00
29733;BME280;16643;43.158;25.302;2023-02-28T10:42:22;98942.59;;;5.95;100.00
29733;BME280;16643;43.158;25.302;2023-02-28T10:45:03;98937.41;;;6.00;100.00
29733;BME280;16643;43.158;25.302;2023-02-28T10:47:30;98937.41;;;6.00;100.00
29733;BME280;16643;43.158;25.302;2023-02-28T10:49:56;98928.81;;;6.04;100.00
29733;BME280;16643;43.158;25.302;2023-02-28T10:52:38;98934.84;;;6.01;100.00
29733;BME280;16643;43.158;25.302;2023-02-28T10:55:15;98926.22;;;6.01;100.00
29733;BME280;16643;43.158;25.302;2023-02-28T10:57:44;98930.53;;;5.91;100.00
29733;BME280;16643;43.158;25.302;2023-02-28T11:00:17;98927.09;;;6.04;100.00
29733;BME280;16643;43.158;25.302;2023-02-28T11:02:44;98925.41;;;6.14;100.00
29733;BME280;16643;43.158;25.302;2023-02-28T11:05:31;98929.72;;;6.18;100.00
29733;BME280;16643;43.158;25.302;2023-02-28T11:08:05;98914.22;;;6.16;100.00
29733;BME280;16643;43.158;25.302;2023-02-28T11:10:31;98929.69;;;6.23;100.00
29733;BME280;16643;43.158;25.302;2023-02-28T11:13:00;98921.97;;;6.09;100.00
29733;BME280;16643;43.158;25.302;2023-02-28T11:20:23;98921.09;;;6.04;100.00
29733;BME280;16643;43.158;25.302;2023-02-28T11:22:49;98911.63;;;6.12;100.00
29733;BME280;16643;43.158;25.302;2023-02-28T11:25:25;98920.22;;;6.15;100.00
29733;BME280;16643;43.158;25.302;2023-02-28T11:27:52;98909.88;;;6.00;100.00
29733;BME280;16643;43.158;25.302;2023-02-28T11:32:50;98909.88;;;6.00;100.00
29733;BME280;16643;43.158;25.302;2023-02-28T11:35:38;98904.72;;;5.93;100.00
29733;BME280;16643;43.158;25.302;2023-02-28T11:38:02;98899.56;;;5.91;100.00
29733;BME280;16643;43.158;25.302;2023-02-28T11:40:50;98907.34;;;5.97;100.00
29733;BME280;16643;43.158;25.302;2023-02-28T11:43:20;98909.91;;;6.15;100.00
29733;BME280;16643;43.158;25.302;2023-02-28T11:45:54;98896.13;;;6.23;100.00
29733;BME280;16643;43.158;25.302;2023-02-28T11:48:23;98903.03;;;6.22;100.00
29733;BME280;16643;43.158;25.302;2023-02-28T11:51:00;98903.03;;;6.02;100.00
29733;BME280;16643;43.158;25.302;2023-02-28T12:01:18;98907.31;;;5.96;100.00
29733;BME280;16643;43.158;25.302;2023-02-28T12:06:18;98908.13;;;5.86;100.00
29733;BME280;16643;43.158;25.302;2023-02-28T12:08:54;98905.59;;;5.93;100.00
29733;BME280;16643;43.158;25.302;2023-02-28T12:14:16;98895.22;;;5.72;100.00
29733;BME280;16643;43.158;25.302;2023-02-28T12:17:04;98892.63;;;5.67;100.00
29733;BME280;16643;43.158;25.302;2023-02-28T12:19:47;98889.13;;;5.47;100.00
29733;BME280;16643;43.158;25.302;2023-02-28T12:22:23;98896.88;;;5.50;100.00
29733;BME280;16643;43.158;25.302;2023-02-28T12:25:09;98888.25;;;5.43;100.00
29733;BME280;16643;43.158;25.302;2023-02-28T12:27:44;98895.97;;;5.37;100.00
29733;BME280;16643;43.158;25.302;2023-02-28T12:30:30;98895.97;;;5.34;100.00
29733;BME280;16643;43.158;25.302;2023-02-28T12:33:00;98905.38;;;5.25;100.00
29733;BME280;16643;43.158;25.302;2023-02-28T12:35:32;98892.53;;;5.35;100.00
29733;BME280;16643;43.158;25.302;2023-02-28T12:38:02;98892.56;;;5.38;100.00
29733;BME280;16643;43.158;25.302;2023-02-28T12:40:33;98891.69;;;5.36;100.00
29733;BME280;16643;43.158;25.302;2023-02-28T12:43:02;98890.78;;;5.33;100.00
29733;BME280;16643;43.158;25.302;2023-02-28T12:48:08;98893.41;;;5.45;100.00
29733;BME280;16643;43.158;25.302;2023-02-28T12:50:35;98890.84;;;5.40;100.00
29733;BME280;16643;43.158;25.302;2023-02-28T12:53:03;98879.63;;;5.32;100.00
29733;BME280;16643;43.158;25.302;2023-02-28T12:58:31;98895.16;;;5.51;100.00
29733;BME280;16643;43.158;25.302;2023-02-28T13:00:58;98891.72;;;5.50;100.00
29733;BME280;16643;43.158;25.302;2023-02-28T13:12:01;98896.91;;;5.61;100.00
29733;BME280;16643;43.158;25.302;2023-02-28T13:14:28;98908.94;;;5.60;100.00
29733;BME280;16643;43.158;25.302;2023-02-28T13:19:46;98897.72;;;5.44;100.00
29733;BME280;16643;43.158;25.302;2023-02-28T13:22:35;98899.44;;;5.39;100.00
29733;BME280;16643;43.158;25.302;2023-02-28T13:25:50;98895.16;;;5.41;100.00
29733;BME280;16643;43.158;25.302;2023-02-28T13:27:53;98889.09;;;5.33;100.00
29733;BME280;16643;43.158;25.302;2023-02-28T13:36:27;98894.22;;;5.26;100.00
29733;BME280;16643;43.158;25.302;2023-02-28T13:38:47;98893.34;;;5.25;100.00
29733;BME280;16643;43.158;25.302;2023-02-28T13:44:15;98900.19;;;5.16;100.00
29733;BME280;16643;43.158;25.302;2023-02-28T13:51:47;98895.91;;;5.15;100.00
29733;BME280;16643;43.158;25.302;2023-02-28T13:54:38;98893.34;;;5.24;100.00
29733;BME280;16643;43.158;25.302;2023-02-28T13:57:04;98899.38;;;5.32;100.00
29733;BME280;16643;43.158;25.302;2023-02-28T13:59:51;98900.25;;;5.26;100.00
29733;BME280;16643;43.158;25.302;2023-02-28T14:02:45;98893.41;;;5.39;100.00
29733;BME280;16643;43.158;25.302;2023-02-28T14:08:13;98892.56;;;5.38;100.00
29733;BME280;16643;43.158;25.302;2023-02-28T14:10:37;98896.00;;;5.43;100.00
29733;BME280;16643;43.158;25.302;2023-02-28T14:13:36;98884.84;;;5.47;100.00
29733;BME280;16643;43.158;25.302;2023-02-28T14:15:59;98883.09;;;5.45;100.00
29733;BME280;16643;43.158;25.302;2023-02-28T14:18:30;98881.41;;;5.41;100.00
29733;BME280;16643;43.158;25.302;2023-02-28T14:31:34;98893.44;;;5.48;100.00
29733;BME280;16643;43.158;25.302;2023-02-28T14:34:20;98896.00;;;5.39;100.00
29733;BME280;16643;43.158;25.302;2023-02-28T14:36:49;98894.25;;;5.29;100.00
29733;BME280;16643;43.158;25.302;2023-02-28T14:39:16;98904.56;;;5.36;100.00